Time;durP1;ratioP1;P1;durP2;ratioP2;P2;SDS_P1;SDS_P2;PMS_P1;PMS_P2;Temp;Humidity;BMP_temperature;BMP_pressure;BME280_temperature;BME280_humidity;BME280_pressure;Samples;Min_cycle;Max_cycle;Signal;HPM_P1;HPM_P2
2021/08/19 00:02:17;;;;;;;11.15;4.97;;;16.50;99.90;;;;;;5096855;28;20031;-67
2021/08/19 00:04:44;;;;;;;7.55;4.60;;;16.50;99.90;;;;;;5095601;28;20131;-67
2021/08/19 00:07:09;;;;;;;7.75;4.72;;;16.50;99.90;;;;;;5096809;28;20118;-67
2021/08/19 00:09:38;;;;;;;8.15;4.63;;;16.50;99.90;;;;;;5095959;28;20028;-67
2021/08/19 00:12:08;;;;;;;7.05;4.20;;;16.50;99.90;;;;;;5097307;28;20048;-67
2021/08/19 00:14:37;;;;;;;7.03;4.63;;;16.50;99.90;;;;;;5097104;28;20421;-67
2021/08/19 00:17:05;;;;;;;7.75;4.20;;;16.50;99.90;;;;;;5095937;28;20058;-67
2021/08/19 00:19:31;;;;;;;7.00;3.92;;;16.50;99.90;;;;;;5098431;28;20040;-67
2021/08/19 00:21:56;;;;;;;8.73;4.80;;;16.50;99.90;;;;;;5099019;28;20123;-67
2021/08/19 00:24:23;;;;;;;4.10;3.75;;;16.50;99.90;;;;;;5098381;28;20043;-67
2021/08/19 00:26:48;;;;;;;8.75;4.40;;;16.50;99.90;;;;;;5126674;27;20055;-67
2021/08/19 00:29:14;;;;;;;7.28;4.00;;;16.50;99.90;;;;;;5099385;28;20429;-67
2021/08/19 00:31:39;;;;;;;6.45;3.78;;;16.50;99.90;;;;;;5096540;28;20436;-67
2021/08/19 00:34:05;;;;;;;5.93;3.47;;;16.60;99.90;;;;;;5098692;28;20039;-67
2021/08/19 00:36:31;;;;;;;4.60;3.80;;;16.40;99.90;;;;;;5097957;28;20092;-67
2021/08/19 00:38:59;;;;;;;9.23;4.60;;;16.50;99.90;;;;;;5098771;28;20062;-67
2021/08/19 00:41:24;;;;;;;4.20;3.47;;;16.50;99.90;;;;;;5100159;28;20063;-67
2021/08/19 00:43:51;;;;;;;5.32;3.40;;;16.50;99.90;;;;;;5098275;28;20063;-67
2021/08/19 00:46:27;;;;;;;6.57;3.70;;;16.50;99.90;;;;;;5097316;28;20067;-67
2021/08/19 00:49:06;;;;;;;5.72;3.65;;;16.50;99.90;;;;;;5128030;27;20065;-67
2021/08/19 00:51:41;;;;;;;5.78;3.50;;;16.50;99.90;;;;;;5096739;28;20119;-67
2021/08/19 00:54:10;;;;;;;7.28;3.67;;;16.50;99.90;;;;;;5094420;28;20052;-67
2021/08/19 00:56:37;;;;;;;6.05;3.40;;;16.50;99.90;;;;;;5096454;28;20032;-67
2021/08/19 00:59:10;;;;;;;5.97;3.80;;;16.40;99.90;;;;;;5095462;28;20044;-67
2021/08/19 01:01:37;;;;;;;5.60;3.80;;;16.50;99.90;;;;;;5094784;28;20047;-67
2021/08/19 01:04:04;;;;;;;8.90;3.67;;;16.40;99.90;;;;;;5095737;28;20036;-67
2021/08/19 01:06:30;;;;;;;6.00;3.15;;;16.50;99.90;;;;;;5094805;28;20405;-67
2021/08/19 01:08:56;;;;;;;6.78;3.47;;;16.50;99.90;;;;;;5095837;28;20055;-67
2021/08/19 01:11:22;;;;;;;6.38;3.35;;;16.50;99.90;;;;;;5095907;28;20516;-67
2021/08/19 01:13:51;;;;;;;4.88;3.30;;;16.50;99.90;;;;;;5097218;28;20130;-67
2021/08/19 01:16:20;;;;;;;7.88;3.53;;;16.50;99.90;;;;;;5096265;27;20031;-67
2021/08/19 01:18:47;;;;;;;8.13;3.67;;;16.40;99.90;;;;;;5095963;28;20054;-67
2021/08/19 01:21:17;;;;;;;4.93;3.10;;;16.40;99.90;;;;;;5097472;28;20036;-67
2021/08/19 01:23:43;;;;;;;7.72;3.08;;;16.50;99.90;;;;;;5094604;28;20036;-67
2021/08/19 01:26:13;;;;;;;7.03;2.85;;;16.40;99.90;;;;;;5097118;28;20054;-67
2021/08/19 01:28:40;;;;;;;4.35;3.03;;;16.40;99.90;;;;;;5094855;28;20035;-67
2021/08/19 01:31:07;;;;;;;7.60;3.40;;;16.40;99.90;;;;;;5095948;28;20028;-67
2021/08/19 01:33:33;;;;;;;7.35;3.45;;;16.40;99.90;;;;;;5095881;28;20529;-67
2021/08/19 01:35:59;;;;;;;4.55;3.05;;;16.40;99.90;;;;;;5097173;28;20039;-67
2021/08/19 01:38:34;;;;;;;5.72;3.38;;;16.40;99.90;;;;;;5092684;28;20036;-67
2021/08/19 01:41:01;;;;;;;5.53;3.30;;;16.40;99.90;;;;;;5097344;28;20470;-67
2021/08/19 01:43:28;;;;;;;5.88;3.20;;;16.30;99.90;;;;;;5096566;27;20304;-67
2021/08/19 01:46:10;;;;;;;5.20;4.18;;;16.40;99.90;;;;;;5094692;28;20032;-67
2021/08/19 01:48:37;;;;;;;6.75;4.20;;;16.40;99.90;;;;;;5096101;28;20405;-67
2021/08/19 01:51:04;;;;;;;4.97;3.65;;;16.40;99.90;;;;;;5095563;28;20032;-67
2021/08/19 01:53:30;;;;;;;5.97;3.80;;;16.40;99.90;;;;;;5097116;28;20036;-67
2021/08/19 01:55:56;;;;;;;7.15;3.47;;;16.40;99.90;;;;;;5094805;27;20043;-67
2021/08/19 01:58:22;;;;;;;5.45;3.78;;;16.40;99.90;;;;;;5096211;28;20160;-67
2021/08/19 02:00:48;;;;;;;6.22;3.70;;;16.40;99.90;;;;;;5097375;28;20122;-67
2021/08/19 02:03:14;;;;;;;6.38;3.92;;;16.30;99.90;;;;;;5096857;28;20043;-67
2021/08/19 02:05:40;;;;;;;6.32;3.53;;;16.40;99.90;;;;;;5093305;28;20040;-67
2021/08/19 02:08:08;;;;;;;5.20;4.30;;;16.40;99.90;;;;;;5092563;28;20094;-67
2021/08/19 02:10:37;;;;;;;6.82;4.07;;;16.40;99.90;;;;;;5097720;28;20039;-67
2021/08/19 02:13:04;;;;;;;4.32;3.65;;;16.40;99.90;;;;;;5092633;28;20086;-67
2021/08/19 02:15:30;;;;;;;8.45;4.05;;;16.40;99.90;;;;;;5094936;28;20131;-67
2021/08/19 02:17:55;;;;;;;6.72;3.65;;;16.40;99.90;;;;;;5097153;28;20596;-67
2021/08/19 02:20:21;;;;;;;5.20;4.10;;;16.40;99.90;;;;;;5096184;28;20043;-67
2021/08/19 02:22:48;;;;;;;7.72;4.40;;;16.40;99.90;;;;;;5096389;28;20028;-67
2021/08/19 02:25:14;;;;;;;6.15;5.00;;;16.40;99.90;;;;;;5094296;28;20108;-67
2021/08/19 02:27:40;;;;;;;9.65;4.95;;;16.40;99.90;;;;;;5093608;28;20544;-67
2021/08/19 02:30:07;;;;;;;5.80;4.80;;;16.40;99.90;;;;;;5098086;28;20067;-67
2021/08/19 02:32:33;;;;;;;7.32;5.20;;;16.40;99.90;;;;;;5106875;28;20108;-67
2021/08/19 02:34:58;;;;;;;6.68;6.00;;;16.40;99.90;;;;;;5101069;28;20119;-67
2021/08/19 02:37:27;;;;;;;9.07;5.97;;;16.40;99.90;;;;;;5098215;28;20032;-67
2021/08/19 02:39:53;;;;;;;7.65;6.32;;;16.40;99.90;;;;;;5100574;28;20042;-67
2021/08/19 02:42:19;;;;;;;7.05;6.15;;;16.40;99.90;;;;;;5101085;28;20485;-67
2021/08/19 02:44:44;;;;;;;7.85;6.13;;;16.40;99.90;;;;;;5100833;28;20039;-67
2021/08/19 02:47:10;;;;;;;7.65;6.85;;;16.40;99.90;;;;;;5102366;28;20040;-67
2021/08/19 02:49:35;;;;;;;9.35;7.45;;;16.40;99.90;;;;;;5102316;28;20035;-67
2021/08/19 02:52:01;;;;;;;9.48;7.35;;;16.30;99.90;;;;;;5099815;28;20035;-67
2021/08/19 02:54:27;;;;;;;9.70;8.70;;;16.40;99.90;;;;;;5101170;28;20055;-67
2021/08/19 02:56:52;;;;;;;10.43;8.50;;;16.30;99.90;;;;;;5102411;28;20032;-67
2021/08/19 02:59:18;;;;;;;9.25;8.02;;;16.30;99.90;;;;;;5101527;28;20375;-67
2021/08/19 03:01:44;;;;;;;9.93;8.82;;;16.30;99.90;;;;;;5100386;28;20040;-67
2021/08/19 03:04:09;;;;;;;12.05;9.35;;;16.30;99.90;;;;;;5101730;28;20481;-67
2021/08/19 03:06:35;;;;;;;12.13;9.88;;;16.30;99.90;;;;;;5102322;28;20485;-67
2021/08/19 03:09:01;;;;;;;10.30;9.30;;;16.30;99.90;;;;;;5096940;28;20490;-67
2021/08/19 03:11:27;;;;;;;11.68;9.60;;;16.20;99.90;;;;;;5102343;28;20077;-67
2021/08/19 03:13:53;;;;;;;12.10;10.95;;;16.20;99.90;;;;;;5103654;28;20035;-67
2021/08/19 03:16:19;;;;;;;11.80;10.70;;;16.20;99.90;;;;;;5108235;28;20039;-67
2021/08/19 03:18:45;;;;;;;14.30;12.18;;;16.30;99.90;;;;;;5105559;28;20028;-67
2021/08/19 03:21:10;;;;;;;14.82;11.80;;;16.30;99.90;;;;;;5104105;28;20046;-67
2021/08/19 03:23:36;;;;;;;12.00;10.77;;;16.30;99.90;;;;;;5097300;28;20036;-67
2021/08/19 03:26:04;;;;;;;13.43;12.00;;;16.20;99.90;;;;;;5100751;28;20048;-67
2021/08/19 03:28:31;;;;;;;15.10;13.70;;;16.30;99.90;;;;;;5097670;28;20093;-67
2021/08/19 03:30:57;;;;;;;14.50;11.98;;;16.30;99.90;;;;;;5102219;28;20063;-67
2021/08/19 03:33:24;;;;;;;14.30;13.00;;;16.30;99.90;;;;;;5105458;28;20044;-67
2021/08/19 03:35:50;;;;;;;15.88;13.05;;;16.30;99.90;;;;;;5101280;28;20637;-67
2021/08/19 03:38:16;;;;;;;14.52;13.15;;;16.30;99.90;;;;;;5099528;28;20043;-67
2021/08/19 03:40:42;;;;;;;15.73;13.95;;;16.30;99.90;;;;;;5103385;28;20047;-67
2021/08/19 03:43:07;;;;;;;17.55;15.95;;;16.20;99.90;;;;;;5105342;28;20059;-67
2021/08/19 03:45:33;;;;;;;16.52;15.02;;;16.30;99.90;;;;;;5099722;28;20097;-67
2021/08/19 03:47:59;;;;;;;15.57;14.05;;;16.30;99.90;;;;;;5101102;28;20043;-67
2021/08/19 03:50:25;;;;;;;18.73;15.77;;;16.30;99.90;;;;;;5104770;28;20485;-67
2021/08/19 03:52:51;;;;;;;18.95;15.75;;;16.20;99.90;;;;;;5103850;28;20035;-67
2021/08/19 03:55:17;;;;;;;15.93;14.32;;;16.30;99.90;;;;;;5099414;28;20061;-67
2021/08/19 03:57:43;;;;;;;16.52;15.02;;;16.20;99.90;;;;;;5099339;28;20063;-67
2021/08/19 04:00:09;;;;;;;15.43;14.05;;;16.30;99.90;;;;;;5100990;28;20462;-67
2021/08/19 04:02:34;;;;;;;17.25;15.48;;;16.30;99.90;;;;;;5105162;28;20040;-67
2021/08/19 04:05:00;;;;;;;16.42;14.82;;;16.30;99.90;;;;;;5107357;28;20035;-67
2021/08/19 04:07:26;;;;;;;17.80;15.80;;;16.20;99.90;;;;;;5102079;28;20032;-67
2021/08/19 04:09:52;;;;;;;17.95;16.15;;;16.30;99.90;;;;;;5096635;28;20116;-67
2021/08/19 04:12:18;;;;;;;19.30;16.95;;;16.30;99.90;;;;;;5099932;28;20060;-67
2021/08/19 04:14:43;;;;;;;18.38;16.40;;;16.30;99.90;;;;;;5103921;28;20042;-67
2021/08/19 04:17:10;;;;;;;17.63;15.82;;;16.30;99.90;;;;;;5106295;28;20497;-67
2021/08/19 04:19:36;;;;;;;18.05;16.27;;;16.30;99.90;;;;;;5104799;28;20039;-67
2021/08/19 04:22:02;;;;;;;18.73;16.75;;;16.30;99.90;;;;;;5104375;28;20032;-67
2021/08/19 04:24:28;;;;;;;19.70;16.48;;;16.30;99.90;;;;;;5105087;28;20465;-67
2021/08/19 04:26:53;;;;;;;17.25;15.40;;;16.30;99.90;;;;;;5104512;28;20598;-67
2021/08/19 04:29:19;;;;;;;18.02;16.13;;;16.40;99.90;;;;;;5103778;28;20047;-67
2021/08/19 04:31:44;;;;;;;18.45;16.70;;;16.40;99.90;;;;;;5102147;28;20036;-67
2021/08/19 04:34:10;;;;;;;23.27;17.55;;;16.40;99.90;;;;;;5102990;28;20103;-67
2021/08/19 04:36:36;;;;;;;21.20;17.48;;;16.50;99.90;;;;;;5098532;28;20075;-67
2021/08/19 04:39:02;;;;;;;19.17;16.58;;;16.40;99.90;;;;;;5104925;28;20044;-67
2021/08/19 04:41:29;;;;;;;21.42;17.58;;;16.50;99.90;;;;;;5106282;28;20111;-67
2021/08/19 04:43:55;;;;;;;18.45;16.52;;;16.50;99.90;;;;;;5101493;28;20431;-67
2021/08/19 04:46:20;;;;;;;19.65;17.38;;;16.50;99.90;;;;;;5104729;28;20043;-67
2021/08/19 04:48:46;;;;;;;20.35;18.30;;;16.50;99.90;;;;;;5110414;28;20032;-67
2021/08/19 04:51:12;;;;;;;20.75;17.63;;;16.50;99.90;;;;;;5107650;28;20052;-67
2021/08/19 04:53:38;;;;;;;18.88;17.08;;;16.50;99.90;;;;;;5102535;27;20055;-67
2021/08/19 04:56:04;;;;;;;21.50;18.13;;;16.50;99.90;;;;;;5103968;28;20098;-67
2021/08/19 04:58:30;;;;;;;21.90;18.45;;;16.50;99.90;;;;;;5106720;28;20122;-67
2021/08/19 05:00:56;;;;;;;20.65;17.35;;;16.60;99.90;;;;;;5107449;28;20544;-67
2021/08/19 05:03:21;;;;;;;19.83;16.70;;;16.60;99.90;;;;;;5109567;28;20044;-67
2021/08/19 05:05:47;;;;;;;20.08;16.45;;;16.60;99.90;;;;;;5106574;28;20123;-67
2021/08/19 05:08:13;;;;;;;17.70;16.08;;;16.60;99.90;;;;;;5101813;28;20478;-67
2021/08/19 05:10:40;;;;;;;18.20;16.35;;;16.60;99.90;;;;;;5100464;28;20122;-67
2021/08/19 05:13:06;;;;;;;18.80;16.35;;;16.60;99.90;;;;;;5098102;28;20040;-67
2021/08/19 05:15:36;;;;;;;18.13;16.27;;;16.60;99.90;;;;;;5095151;28;20028;-67
2021/08/19 05:18:02;;;;;;;17.55;15.95;;;16.70;99.90;;;;;;5095222;28;20059;-67
2021/08/19 05:20:28;;;;;;;18.70;16.10;;;16.60;99.90;;;;;;5097812;28;20134;-67
2021/08/19 05:22:54;;;;;;;20.15;17.08;;;16.60;99.90;;;;;;5095502;28;20036;-67
2021/08/19 05:25:20;;;;;;;19.52;16.85;;;16.70;99.90;;;;;;5096762;28;20046;-67
2021/08/19 05:27:45;;;;;;;19.40;16.20;;;16.70;99.90;;;;;;5094927;28;20109;-67
2021/08/19 05:30:11;;;;;;;19.88;16.67;;;16.70;99.90;;;;;;5098045;28;20949;-67
2021/08/19 05:32:37;;;;;;;17.13;15.32;;;16.70;99.90;;;;;;5093779;28;20040;-67
2021/08/19 05:35:03;;;;;;;18.25;15.38;;;16.70;99.90;;;;;;5094507;28;20648;-67
2021/08/19 05:37:30;;;;;;;17.20;15.45;;;16.70;99.90;;;;;;5094570;27;20114;-67
2021/08/19 05:39:56;;;;;;;17.92;15.63;;;16.70;99.90;;;;;;5097670;28;20614;-67
2021/08/19 05:42:21;;;;;;;22.75;14.75;;;16.70;99.90;;;;;;5094989;28;20047;-67
2021/08/19 05:44:49;;;;;;;17.08;15.27;;;16.80;99.90;;;;;;5098262;28;20028;-67
2021/08/19 05:47:16;;;;;;;18.83;16.10;;;16.80;99.90;;;;;;5096157;28;20039;-67
2021/08/19 05:49:44;;;;;;;16.83;15.13;;;16.80;99.90;;;;;;5097417;28;20057;-67
2021/08/19 05:52:12;;;;;;;21.52;16.40;;;16.80;99.90;;;;;;5095289;28;20035;-67
2021/08/19 05:54:38;;;;;;;18.08;16.15;;;16.80;99.90;;;;;;5093921;28;20038;-67
2021/08/19 05:57:04;;;;;;;18.65;15.85;;;16.80;99.90;;;;;;5095232;28;20634;-67
2021/08/19 05:59:32;;;;;;;18.52;15.77;;;16.90;99.90;;;;;;5095094;28;20044;-67
2021/08/19 06:01:57;;;;;;;21.33;15.88;;;16.80;99.90;;;;;;5094045;28;20028;-67
2021/08/19 06:04:23;;;;;;;18.33;16.05;;;16.80;99.90;;;;;;5095366;28;20046;-67
2021/08/19 06:06:49;;;;;;;16.55;14.85;;;16.80;99.90;;;;;;5094042;28;20039;-67
2021/08/19 06:09:14;;;;;;;16.88;15.10;;;16.90;99.90;;;;;;5095672;27;20048;-67
2021/08/19 06:11:41;;;;;;;19.85;15.80;;;16.90;99.90;;;;;;5096566;28;20040;-67
2021/08/19 06:14:07;;;;;;;17.23;15.43;;;16.90;99.90;;;;;;5098247;28;20050;-67
2021/08/19 06:16:33;;;;;;;20.75;15.65;;;16.90;99.90;;;;;;5096174;27;20726;-67
2021/08/19 06:19:00;;;;;;;18.50;16.55;;;16.90;99.90;;;;;;5096297;28;20087;-67
2021/08/19 06:21:26;;;;;;;16.48;14.82;;;16.90;99.90;;;;;;5095635;28;20044;-67
2021/08/19 06:23:53;;;;;;;18.25;16.13;;;16.90;99.90;;;;;;5094793;28;20122;-67
2021/08/19 06:26:19;;;;;;;19.15;16.52;;;16.90;99.90;;;;;;5095157;28;20405;-67
2021/08/19 06:28:44;;;;;;;18.60;16.55;;;16.90;99.90;;;;;;5092369;27;20035;-67
2021/08/19 06:31:10;;;;;;;20.67;17.10;;;16.90;99.90;;;;;;5096436;28;20043;-67
2021/08/19 06:33:36;;;;;;;16.90;15.20;;;16.90;99.90;;;;;;5094987;28;20048;-67
2021/08/19 06:36:03;;;;;;;16.48;14.77;;;16.90;99.90;;;;;;5095108;28;20378;-67
2021/08/19 06:38:34;;;;;;;17.35;14.20;;;16.90;99.90;;;;;;5093458;28;20122;-67
2021/08/19 06:41:02;;;;;;;17.77;15.27;;;16.90;99.90;;;;;;5095533;28;20040;-67
2021/08/19 06:43:28;;;;;;;14.98;13.48;;;16.90;99.90;;;;;;5095372;28;20051;-67
2021/08/19 06:45:54;;;;;;;15.52;13.85;;;17.00;99.90;;;;;;5094528;28;20043;-67
2021/08/19 06:48:20;;;;;;;15.57;13.80;;;17.00;99.90;;;;;;5094588;28;20469;-67
2021/08/19 06:50:45;;;;;;;14.05;12.10;;;17.00;99.90;;;;;;5094294;28;20039;-67
2021/08/19 06:53:11;;;;;;;14.63;13.20;;;17.10;99.90;;;;;;5097147;28;20564;-67
2021/08/19 06:55:37;;;;;;;13.38;12.07;;;17.10;99.90;;;;;;5093977;28;20542;-67
2021/08/19 06:58:02;;;;;;;13.10;11.80;;;17.00;99.90;;;;;;5093158;28;20747;-67
2021/08/19 07:00:28;;;;;;;12.35;11.13;;;17.10;99.90;;;;;;5096050;28;20040;-67
2021/08/19 07:02:54;;;;;;;12.18;10.98;;;17.00;99.90;;;;;;5095731;28;20067;-67
2021/08/19 07:05:19;;;;;;;13.85;12.02;;;17.10;99.90;;;;;;5094314;28;20097;-67
2021/08/19 07:07:45;;;;;;;15.48;11.10;;;17.10;99.90;;;;;;5094475;28;20090;-67
2021/08/19 07:10:11;;;;;;;13.15;11.75;;;17.10;99.90;;;;;;5094175;28;20039;-67
2021/08/19 07:12:38;;;;;;;11.00;9.02;;;17.10;99.90;;;;;;5093331;28;20032;-67
2021/08/19 07:15:06;;;;;;;12.75;9.30;;;17.10;99.90;;;;;;5095342;28;20038;-67
2021/08/19 07:17:31;;;;;;;10.88;8.63;;;17.10;99.90;;;;;;5093337;28;20459;-67
2021/08/19 07:19:57;;;;;;;13.68;9.25;;;17.10;99.90;;;;;;5095521;28;20068;-67
2021/08/19 07:22:23;;;;;;;12.48;10.40;;;17.10;99.90;;;;;;5093818;28;20128;-67
2021/08/19 07:24:48;;;;;;;11.23;9.40;;;17.10;99.90;;;;;;5091513;28;20488;-67
2021/08/19 07:27:14;;;;;;;12.40;9.50;;;17.10;99.90;;;;;;5096353;28;20051;-67
2021/08/19 07:29:40;;;;;;;12.32;10.93;;;17.10;99.90;;;;;;5093652;28;20032;-67
2021/08/19 07:32:06;;;;;;;12.50;10.40;;;17.20;99.90;;;;;;5092069;28;20051;-67
2021/08/19 07:34:31;;;;;;;12.32;10.38;;;17.20;99.90;;;;;;5096630;28;20031;-67
2021/08/19 07:36:57;;;;;;;12.05;9.85;;;17.30;99.90;;;;;;5093517;28;20043;-67
2021/08/19 07:39:22;;;;;;;12.52;9.60;;;17.30;99.90;;;;;;5093497;28;21577;-67
2021/08/19 07:41:48;;;;;;;16.88;10.52;;;17.40;99.90;;;;;;5095864;28;20035;-67
2021/08/19 07:44:14;;;;;;;11.02;9.70;;;17.40;99.90;;;;;;5094099;28;20386;-67
2021/08/19 07:46:40;;;;;;;11.80;9.20;;;17.40;99.90;;;;;;5094052;28;20474;-67
2021/08/19 07:49:05;;;;;;;11.43;9.52;;;17.40;99.90;;;;;;5095552;28;20048;-67
2021/08/19 07:51:31;;;;;;;10.82;9.38;;;17.40;99.90;;;;;;5096274;28;20054;-67
2021/08/19 07:53:58;;;;;;;10.00;9.07;;;17.40;99.90;;;;;;5094647;28;20232;-67
2021/08/19 07:56:24;;;;;;;11.55;9.27;;;17.40;99.90;;;;;;5094679;28;20054;-67
2021/08/19 07:58:50;;;;;;;10.90;8.23;;;17.40;99.90;;;;;;5097707;28;20043;-67
2021/08/19 08:01:16;;;;;;;9.82;8.82;;;17.40;99.90;;;;;;5097501;28;20375;-67
2021/08/19 08:03:41;;;;;;;10.23;8.90;;;17.40;99.90;;;;;;5098823;28;20036;-67
2021/08/19 08:06:07;;;;;;;11.02;9.63;;;17.40;99.90;;;;;;5098132;28;20063;-67
2021/08/19 08:08:33;;;;;;;11.60;10.40;;;17.40;99.90;;;;;;5096178;28;20105;-67
2021/08/19 08:10:59;;;;;;;16.45;11.10;;;17.40;99.90;;;;;;5096661;28;20482;-67
2021/08/19 08:13:25;;;;;;;12.93;10.85;;;17.40;99.90;;;;;;5100685;28;20044;-66
2021/08/19 08:15:51;;;;;;;16.13;12.32;;;17.40;99.90;;;;;;5099787;28;20084;-67
2021/08/19 08:18:18;;;;;;;15.05;12.07;;;17.50;99.90;;;;;;5099449;28;20028;-67
2021/08/19 08:20:45;;;;;;;13.50;11.63;;;17.50;99.90;;;;;;5099731;28;20047;-67
2021/08/19 08:23:12;;;;;;;12.77;11.55;;;17.50;99.90;;;;;;5097936;28;20126;-66
2021/08/19 08:25:38;;;;;;;15.77;12.85;;;17.50;99.90;;;;;;5095247;28;20028;-67
2021/08/19 08:28:08;;;;;;;16.33;12.23;;;17.50;99.90;;;;;;5097120;28;20065;-66
2021/08/19 08:30:36;;;;;;;13.68;10.38;;;17.50;99.90;;;;;;5095400;27;20040;-66
2021/08/19 08:33:02;;;;;;;12.38;9.52;;;17.50;99.90;;;;;;5097450;28;20387;-67
2021/08/19 08:35:33;;;;;;;9.80;8.68;;;17.50;99.90;;;;;;5095658;28;20092;-66
2021/08/19 08:38:02;;;;;;;12.02;9.20;;;17.50;99.90;;;;;;5096704;28;20146;-67
2021/08/19 08:40:28;;;;;;;16.58;10.90;;;17.50;99.90;;;;;;5096192;28;20061;-67
2021/08/19 08:42:55;;;;;;;12.23;10.98;;;17.50;99.90;;;;;;5093963;28;20115;-66
2021/08/19 08:45:21;;;;;;;18.75;12.65;;;17.50;99.90;;;;;;5094164;28;20039;-66
2021/08/19 08:47:47;;;;;;;21.33;14.95;;;17.50;99.90;;;;;;5097020;28;20032;-67
2021/08/19 08:50:14;;;;;;;19.38;14.52;;;17.60;99.90;;;;;;5098291;28;20040;-67
2021/08/19 08:52:41;;;;;;;18.70;13.95;;;17.60;99.90;;;;;;5095334;28;20039;-66
2021/08/19 08:55:07;;;;;;;16.35;13.43;;;17.60;99.90;;;;;;5098911;28;20032;-66
2021/08/19 08:57:35;;;;;;;17.35;13.43;;;17.70;99.90;;;;;;5093863;27;20604;-67
2021/08/19 09:00:03;;;;;;;20.25;15.18;;;17.70;99.90;;;;;;5097577;28;20046;-66
2021/08/19 09:02:29;;;;;;;17.95;15.20;;;17.70;99.90;;;;;;5095461;27;20032;-67
2021/08/19 09:05:14;;;;;;;25.42;16.80;;;17.70;99.90;;;;;;5096125;28;20039;-67
2021/08/19 09:07:40;;;;;;;23.15;16.50;;;17.70;99.90;;;;;;5095172;28;20039;-66
2021/08/19 09:10:06;;;;;;;24.42;17.55;;;17.70;99.90;;;;;;5096298;27;20048;-67
2021/08/19 09:12:39;;;;;;;33.00;19.17;;;17.70;99.90;;;;;;5095313;28;20043;-66
2021/08/19 09:15:16;;;;;;;29.85;18.42;;;17.70;99.90;;;;;;5097932;28;23462;-67
2021/08/19 09:17:44;;;;;;;26.50;17.63;;;17.70;99.90;;;;;;5095475;28;20028;-67
2021/08/19 09:20:13;;;;;;;26.77;18.60;;;17.70;99.90;;;;;;5098263;28;20122;-67
2021/08/19 09:22:55;;;;;;;31.48;19.50;;;17.70;99.90;;;;;;5096453;28;20089;-67
2021/08/19 09:25:34;;;;;;;26.33;17.67;;;17.70;99.90;;;;;;5098118;28;20039;-66
2021/08/19 09:28:30;;;;;;;26.00;17.98;;;17.70;99.90;;;;;;5095280;27;20067;-67
2021/08/19 09:31:05;;;;;;;24.23;15.27;;;17.70;99.90;;;;;;5096149;28;20036;-67
2021/08/19 09:33:34;;;;;;;26.80;18.58;;;17.70;99.90;;;;;;5095498;28;20478;-67
2021/08/19 09:36:02;;;;;;;30.17;18.38;;;17.70;99.90;;;;;;5096418;28;20622;-67
2021/08/19 09:38:42;;;;;;;23.15;16.77;;;17.70;99.90;;;;;;5095152;28;20110;-67
2021/08/19 09:41:11;;;;;;;24.10;16.50;;;17.70;99.90;;;;;;5095009;28;20443;-67
2021/08/19 09:43:49;;;;;;;30.90;17.10;;;17.80;99.90;;;;;;5095610;28;20072;-67
2021/08/19 09:46:28;;;;;;;27.23;17.38;;;17.80;99.90;;;;;;5095900;28;20043;-67
2021/08/19 09:48:54;;;;;;;23.77;17.52;;;17.90;99.90;;;;;;5095888;28;20035;-67
2021/08/19 09:51:24;;;;;;;21.05;15.93;;;17.90;99.90;;;;;;5098853;28;20449;-67
2021/08/19 09:53:52;;;;;;;26.92;16.60;;;18.00;99.90;;;;;;5092803;28;20028;-67
2021/08/19 09:56:36;;;;;;;23.98;15.40;;;18.10;99.90;;;;;;5093534;28;20036;-67
2021/08/19 09:59:18;;;;;;;19.63;14.90;;;18.30;99.90;;;;;;5097059;28;20086;-67
2021/08/19 10:01:48;;;;;;;23.48;15.38;;;18.40;99.90;;;;;;5093790;28;20036;-67
2021/08/19 10:04:14;;;;;;;19.30;13.40;;;18.50;99.90;;;;;;5093639;28;20039;-67
2021/08/19 10:06:41;;;;;;;20.25;13.75;;;18.50;99.90;;;;;;5094853;28;20112;-67
2021/08/19 10:09:07;;;;;;;22.65;13.35;;;18.50;99.90;;;;;;5094944;28;20078;-67
2021/08/19 10:11:33;;;;;;;20.05;13.05;;;18.40;99.90;;;;;;5094733;28;20060;-67
2021/08/19 10:14:01;;;;;;;21.85;14.13;;;18.40;99.90;;;;;;5094653;28;20069;-67
2021/08/19 10:16:30;;;;;;;21.23;14.82;;;18.30;99.90;;;;;;5097494;28;20032;-67
2021/08/19 10:19:00;;;;;;;20.23;13.52;;;18.20;99.90;;;;;;5126771;27;20032;-67
2021/08/19 10:21:28;;;;;;;21.40;12.85;;;18.20;99.90;;;;;;5093872;28;21941;-67
2021/08/19 10:23:55;;;;;;;18.95;12.70;;;18.10;99.90;;;;;;5096057;28;20108;-67
2021/08/19 10:26:23;;;;;;;19.88;12.80;;;18.10;99.90;;;;;;5093409;28;20039;-67
2021/08/19 10:28:59;;;;;;;21.40;12.18;;;18.10;99.90;;;;;;5094193;28;20064;-67
2021/08/19 10:31:39;;;;;;;16.45;12.00;;;18.20;99.90;;;;;;5098723;28;20048;-67
2021/08/19 10:34:07;;;;;;;19.70;12.68;;;18.10;99.90;;;;;;5097064;28;20036;-67
2021/08/19 10:36:38;;;;;;;20.30;11.88;;;18.10;99.90;;;;;;5092058;28;20028;-67
2021/08/19 10:39:19;;;;;;;16.70;11.63;;;18.10;99.90;;;;;;5096938;28;20079;-67
2021/08/19 10:41:46;;;;;;;17.23;11.75;;;18.10;99.90;;;;;;5095022;28;20040;-67
2021/08/19 10:44:13;;;;;;;18.65;12.80;;;18.10;99.90;;;;;;5093397;28;20128;-67
2021/08/19 10:46:47;;;;;;;21.73;13.23;;;18.10;99.90;;;;;;5096160;28;20122;-67
2021/08/19 10:49:36;;;;;;;14.52;10.93;;;18.10;99.90;;;;;;5092307;28;20071;-67
2021/08/19 10:52:08;;;;;;;14.32;9.88;;;18.10;99.90;;;;;;5096915;28;20802;-67
2021/08/19 10:54:35;;;;;;;14.43;9.55;;;18.10;99.90;;;;;;5098399;28;20038;-67
2021/08/19 10:57:27;;;;;;;10.90;8.77;;;18.00;99.90;;;;;;5094737;28;20085;-67
2021/08/19 10:59:57;;;;;;;15.65;10.43;;;18.10;99.90;;;;;;5087129;28;20176;-67
2021/08/19 11:02:51;;;;;;;12.35;9.52;;;18.20;99.90;;;;;;5093768;28;20035;-67
2021/08/19 11:05:25;;;;;;;12.10;9.15;;;18.30;99.90;;;;;;5095897;28;20382;-67
2021/08/19 11:07:59;;;;;;;14.77;9.15;;;18.40;99.90;;;;;;5093572;28;20035;-67
2021/08/19 11:10:30;;;;;;;10.75;9.38;;;18.40;99.90;;;;;;5094388;28;20050;-67
2021/08/19 11:13:10;;;;;;;12.85;8.32;;;18.50;99.90;;;;;;5091321;28;20078;-67
2021/08/19 11:15:48;;;;;;;11.82;7.18;;;18.50;99.90;;;;;;5092341;28;20040;-67
2021/08/19 11:18:28;;;;;;;13.38;8.60;;;18.40;99.90;;;;;;5095147;28;20149;-67
2021/08/19 11:20:54;;;;;;;10.10;7.78;;;18.50;99.90;;;;;;5092497;28;20036;-67
2021/08/19 11:23:46;;;;;;;9.85;7.60;;;18.60;99.90;;;;;;5092257;28;20097;-67
2021/08/19 11:26:16;;;;;;;9.70;7.20;;;18.60;99.90;;;;;;5092150;28;20036;-67
2021/08/19 11:28:47;;;;;;;9.20;6.13;;;18.60;99.90;;;;;;5095135;28;20124;-67
2021/08/19 11:31:22;;;;;;;10.63;6.88;;;18.60;99.90;;;;;;5098400;28;20036;-67
2021/08/19 11:33:56;;;;;;;11.20;6.45;;;18.60;99.90;;;;;;5097144;28;20044;-67
2021/08/19 11:36:23;;;;;;;9.45;6.18;;;18.60;99.90;;;;;;5098684;28;20039;-67
2021/08/19 11:38:58;;;;;;;9.32;6.47;;;18.50;99.90;;;;;;5098626;28;20119;-67
2021/08/19 11:41:24;;;;;;;9.77;4.93;;;18.50;99.90;;;;;;5096932;28;20447;-67
2021/08/19 11:43:56;;;;;;;3.92;3.47;;;18.50;99.90;;;;;;5098671;28;20160;-67
2021/08/19 11:46:27;;;;;;;3.15;2.85;;;18.50;99.90;;;;;;5095986;28;20780;-67
2021/08/19 11:48:58;;;;;;;2.92;2.65;;;18.50;99.90;;;;;;5100435;28;20051;-67
2021/08/19 11:51:31;;;;;;;7.18;3.72;;;18.50;99.90;;;;;;5097244;28;20088;-67
2021/08/19 11:54:03;;;;;;;4.60;3.17;;;18.50;99.90;;;;;;5129769;27;20039;-67
2021/08/19 11:56:34;;;;;;;4.38;3.70;;;18.40;99.90;;;;;;5097962;28;20040;-67
2021/08/19 11:59:02;;;;;;;3.70;3.40;;;18.40;99.90;;;;;;5095319;28;20047;-67
2021/08/19 12:01:28;;;;;;;4.13;3.75;;;18.20;99.90;;;;;;5097801;28;20047;-67
2021/08/19 12:03:53;;;;;;;3.92;3.53;;;18.20;99.90;;;;;;5097119;28;20040;-67
2021/08/19 12:06:19;;;;;;;3.97;3.50;;;18.20;99.90;;;;;;5097866;28;20490;-67
2021/08/19 12:08:48;;;;;;;3.47;3.17;;;18.10;99.90;;;;;;5100894;28;20032;-67
2021/08/19 12:11:19;;;;;;;4.30;3.90;;;18.10;99.90;;;;;;5100313;28;21419;-67
2021/08/19 12:13:45;;;;;;;4.10;3.70;;;18.00;99.90;;;;;;5098030;28;20039;-67
2021/08/19 12:16:11;;;;;;;6.60;3.35;;;18.00;99.90;;;;;;5096716;27;20377;-67
2021/08/19 12:18:37;;;;;;;4.38;3.15;;;17.90;99.90;;;;;;5097508;28;20031;-67
2021/08/19 12:21:14;;;;;;;5.25;3.47;;;17.90;99.90;;;;;;5098051;28;20038;-67
2021/08/19 12:23:40;;;;;;;4.32;3.50;;;17.90;99.90;;;;;;5099314;28;20063;-67
2021/08/19 12:26:11;;;;;;;3.40;3.10;;;17.80;99.90;;;;;;5099851;28;20044;-67
2021/08/19 12:28:37;;;;;;;4.13;3.33;;;17.80;99.90;;;;;;5096302;28;20042;-67
2021/08/19 12:31:08;;;;;;;3.75;3.22;;;17.80;99.90;;;;;;5097231;28;20120;-67
2021/08/19 12:33:37;;;;;;;3.83;3.47;;;17.80;99.90;;;;;;5095811;28;20122;-67
2021/08/19 12:36:17;;;;;;;4.95;3.90;;;17.80;99.90;;;;;;5096235;28;20157;-67
2021/08/19 12:38:46;;;;;;;3.83;3.40;;;17.70;99.90;;;;;;5102033;27;20059;-67
2021/08/19 12:41:21;;;;;;;4.78;3.83;;;17.70;99.90;;;;;;5097162;28;20135;-67